Time;durP1;ratioP1;P1;durP2;ratioP2;P2;SDS_P1;SDS_P2;PMS_P1;PMS_P2;Temp;Humidity;BMP_temperature;BMP_pressure;BME280_temperature;BME280_humidity;BME280_pressure;Samples;Min_cycle;Max_cycle;Signal;HPM_P1;HPM_P2
2022/05/09 00:02:17;;;;;;;8.00;4.35;;;6.00;99.90;;;;;;5036611;28;20116;-84
2022/05/09 00:04:42;;;;;;;9.25;4.22;;;5.90;99.90;;;;;;5021582;28;20670;-83
2022/05/09 00:07:08;;;;;;;9.73;3.53;;;5.90;99.90;;;;;;5040447;28;20075;-84
2022/05/09 00:09:34;;;;;;;6.88;3.63;;;5.90;99.90;;;;;;5036977;28;20037;-84
2022/05/09 00:12:00;;;;;;;11.32;4.22;;;5.90;99.90;;;;;;5047553;28;20131;-84
2022/05/09 00:14:26;;;;;;;12.20;4.55;;;5.80;99.90;;;;;;5051229;28;20051;-84
2022/05/09 00:16:52;;;;;;;12.57;4.57;;;5.70;99.90;;;;;;5041117;28;20148;-84
2022/05/09 00:19:20;;;;;;;8.40;4.15;;;5.60;99.90;;;;;;5033829;28;20148;-84
2022/05/09 00:21:48;;;;;;;9.75;4.40;;;5.60;99.90;;;;;;5013081;28;20053;-83
2022/05/09 00:24:15;;;;;;;16.95;5.25;;;5.60;99.90;;;;;;5034259;28;20037;-84
2022/05/09 00:26:44;;;;;;;10.10;4.70;;;5.60;99.90;;;;;;5030537;28;20045;-84
2022/05/09 00:29:11;;;;;;;11.88;4.32;;;5.60;99.90;;;;;;5031257;28;20065;-84
2022/05/09 00:31:38;;;;;;;12.73;5.20;;;5.60;99.90;;;;;;5029663;28;20052;-84
2022/05/09 00:34:05;;;;;;;10.70;4.60;;;5.50;99.90;;;;;;5027524;28;20041;-84
2022/05/09 00:36:31;;;;;;;11.00;5.22;;;5.50;99.90;;;;;;5031625;28;20151;-84
2022/05/09 00:38:59;;;;;;;9.50;4.70;;;5.40;99.90;;;;;;5034636;28;20514;-84
2022/05/09 00:41:34;;;;;;;10.57;5.72;;;5.40;99.90;;;;;;5051153;28;20051;-84
2022/05/09 00:44:01;;;;;;;13.05;5.97;;;5.40;99.90;;;;;;5026694;28;20032;-83
2022/05/09 00:46:28;;;;;;;11.63;5.30;;;5.30;99.90;;;;;;5042488;28;20044;-84
2022/05/09 00:49:02;;;;;;;16.80;5.95;;;5.30;99.90;;;;;;5031880;28;20073;-84
2022/05/09 00:51:29;;;;;;;14.18;5.20;;;5.30;99.90;;;;;;5037599;28;20367;-84
2022/05/09 00:53:57;;;;;;;13.98;5.15;;;5.30;99.90;;;;;;5037334;28;20506;-84
2022/05/09 00:56:29;;;;;;;12.02;5.13;;;5.30;99.90;;;;;;5041458;28;20094;-83
2022/05/09 00:58:57;;;;;;;;;;;5.20;99.90;;;;;;5032307;28;20505;-83
2022/05/09 01:01:22;;;;;;;8.38;4.70;;;5.10;99.90;;;;;;5035671;28;19924;-83
2022/05/09 01:04:06;;;;;;;11.07;4.97;;;5.20;99.90;;;;;;5036014;28;20733;-84
2022/05/09 01:06:32;;;;;;;8.57;5.18;;;5.20;99.90;;;;;;5024075;28;20037;-84
2022/05/09 01:08:57;;;;;;;10.63;5.25;;;5.20;99.90;;;;;;5041420;28;20044;-83
2022/05/09 01:11:26;;;;;;;12.38;5.65;;;5.10;99.90;;;;;;5035404;28;20059;-83
2022/05/09 01:13:57;;;;;;;10.70;5.32;;;5.10;99.90;;;;;;5030933;28;20041;-83
2022/05/09 01:16:24;;;;;;;12.07;4.43;;;5.00;99.90;;;;;;5033611;28;20037;-83
2022/05/09 01:18:49;;;;;;;9.80;3.72;;;4.90;99.90;;;;;;5031892;28;20051;-83
2022/05/09 01:21:39;;;;;;;9.95;3.75;;;5.00;99.90;;;;;;5024376;28;20418;-83
2022/05/09 01:24:13;;;;;;;5.40;3.40;;;5.00;99.90;;;;;;5019092;28;20045;-83
2022/05/09 01:26:38;;;;;;;6.32;2.75;;;5.00;99.90;;;;;;5029429;28;20076;-83
2022/05/09 01:29:11;;;;;;;9.98;3.20;;;5.00;99.90;;;;;;5034417;28;20049;-83
2022/05/09 01:31:36;;;;;;;5.43;3.15;;;5.00;99.90;;;;;;5035654;28;20048;-84
2022/05/09 01:34:02;;;;;;;8.88;3.88;;;5.00;99.90;;;;;;5021586;28;20037;-83
2022/05/09 01:36:32;;;;;;;9.02;4.00;;;4.90;99.90;;;;;;5029499;22;20080;-75
2022/05/09 01:38:59;;;;;;;11.50;4.93;;;4.90;99.90;;;;;;5011514;28;20091;-76
2022/05/09 01:41:26;;;;;;;10.65;4.93;;;4.80;99.90;;;;;;5010601;28;20037;-76
2022/05/09 01:43:55;;;;;;;11.52;5.10;;;4.80;99.90;;;;;;5009777;28;20033;-76
2022/05/09 01:46:29;;;;;;;10.90;4.50;;;4.70;99.90;;;;;;5009961;28;20374;-76
2022/05/09 01:51:41;;;;;;;8.02;4.15;;;4.80;99.90;;;;;;5008639;28;20045;-76
2022/05/09 01:54:07;;;;;;;14.45;5.28;;;4.80;99.90;;;;;;5004442;28;20075;-76
2022/05/09 01:56:35;;;;;;;13.73;4.95;;;4.80;99.90;;;;;;5009528;28;20132;-76
2022/05/09 01:59:02;;;;;;;18.80;4.63;;;4.70;99.90;;;;;;5010393;28;20395;-76
2022/05/09 02:01:34;;;;;;;8.77;5.43;;;4.80;99.90;;;;;;5010169;28;20053;-76
2022/05/09 02:04:00;;;;;;;9.57;4.60;;;4.80;99.90;;;;;;5008086;28;20037;-76
2022/05/09 02:06:25;;;;;;;13.32;5.13;;;4.70;99.90;;;;;;5008813;28;20491;-76
2022/05/09 02:08:51;;;;;;;11.13;4.00;;;4.70;99.90;;;;;;5004372;28;20049;-76
2022/05/09 02:11:16;;;;;;;8.80;4.05;;;4.70;99.90;;;;;;4995149;28;20053;-76
2022/05/09 02:13:42;;;;;;;7.35;3.67;;;4.70;99.90;;;;;;5006724;28;20049;-76
2022/05/09 02:16:08;;;;;;;8.85;4.25;;;4.80;99.90;;;;;;5008766;28;20396;-76
2022/05/09 02:18:34;;;;;;;10.00;4.00;;;4.80;99.90;;;;;;5008781;28;20042;-76
2022/05/09 02:21:01;;;;;;;9.38;4.43;;;4.80;99.90;;;;;;4985496;28;20041;-76
2022/05/09 02:23:26;;;;;;;10.85;4.47;;;4.80;99.90;;;;;;5004129;28;20379;-76
2022/05/09 02:25:53;;;;;;;9.15;4.38;;;4.80;99.90;;;;;;5005645;28;20041;-76
2022/05/09 02:28:21;;;;;;;9.88;5.05;;;4.80;99.90;;;;;;4991252;28;20072;-72
2022/05/09 02:30:47;;;;;;;11.32;4.90;;;4.80;99.90;;;;;;5008251;28;20125;-72
2022/05/09 02:33:13;;;;;;;9.68;4.05;;;4.70;99.90;;;;;;4998625;28;20120;-72
2022/05/09 02:35:39;;;;;;;9.88;4.72;;;4.70;99.90;;;;;;5010504;28;20084;-72
2022/05/09 02:38:05;;;;;;;11.50;4.82;;;4.80;99.90;;;;;;5010127;28;20157;-72
2022/05/09 02:40:33;;;;;;;10.98;4.75;;;4.70;99.90;;;;;;4994123;28;20124;-72
2022/05/09 02:42:58;;;;;;;17.35;6.25;;;4.80;99.90;;;;;;5005483;28;20050;-72
2022/05/09 02:45:25;;;;;;;10.35;4.80;;;4.70;99.90;;;;;;4991292;28;20395;-72
2022/05/09 02:47:51;;;;;;;10.93;5.28;;;4.70;99.90;;;;;;5006742;28;20044;-72
2022/05/09 02:50:19;;;;;;;12.05;5.47;;;4.70;99.90;;;;;;4999393;28;20517;-72
2022/05/09 02:52:45;;;;;;;12.02;5.28;;;4.60;99.90;;;;;;5009532;28;20111;-72
2022/05/09 02:55:12;;;;;;;10.82;5.30;;;4.70;99.90;;;;;;5009088;28;20640;-72
2022/05/09 02:57:38;;;;;;;10.05;5.60;;;4.70;99.90;;;;;;5009330;28;20049;-72
2022/05/09 03:00:06;;;;;;;12.95;5.25;;;4.70;99.90;;;;;;5008782;28;20479;-72
2022/05/09 03:02:32;;;;;;;10.95;5.45;;;4.60;99.90;;;;;;5012568;28;20494;-72
2022/05/09 03:04:58;;;;;;;11.60;4.95;;;4.60;99.90;;;;;;5010473;28;20049;-72
2022/05/09 03:07:24;;;;;;;11.77;5.32;;;4.60;99.90;;;;;;5013303;28;20044;-72
2022/05/09 03:09:50;;;;;;;9.23;4.97;;;4.60;99.90;;;;;;5001788;28;20045;-72
2022/05/09 03:12:19;;;;;;;9.93;5.40;;;4.50;99.90;;;;;;5010422;28;20042;-72
2022/05/09 03:14:48;;;;;;;11.32;5.07;;;4.50;99.90;;;;;;5014068;28;20037;-72
2022/05/09 03:17:14;;;;;;;8.15;4.80;;;4.50;99.90;;;;;;5013320;28;20460;-72
2022/05/09 03:19:40;;;;;;;9.02;5.05;;;4.50;99.90;;;;;;4995441;28;20057;-72
2022/05/09 03:22:06;;;;;;;10.15;4.97;;;4.60;99.90;;;;;;5011631;28;20048;-72
2022/05/09 03:24:32;;;;;;;10.27;5.22;;;4.50;99.90;;;;;;5011774;28;20026;-72
2022/05/09 03:27:01;;;;;;;7.15;4.35;;;4.40;99.90;;;;;;5015561;28;20077;-72
2022/05/09 03:29:28;;;;;;;10.55;4.43;;;4.50;99.90;;;;;;4994970;28;20048;-72
2022/05/09 03:31:54;;;;;;;10.88;4.60;;;;;;;;;;5006439;28;20475;-72
2022/05/09 03:34:20;;;;;;;10.43;5.40;;;4.50;99.90;;;;;;5011470;28;20732;-72
2022/05/09 03:36:45;;;;;;;12.05;5.10;;;4.40;99.90;;;;;;5012735;28;20050;-72
2022/05/09 03:39:11;;;;;;;9.52;5.30;;;4.40;99.90;;;;;;4996218;28;20041;-72
2022/05/09 03:41:38;;;;;;;13.18;6.15;;;4.20;99.90;;;;;;5026428;28;20042;-72
2022/05/09 03:44:04;;;;;;;13.88;5.80;;;4.10;99.90;;;;;;5014970;28;20060;-72
2022/05/09 03:46:30;;;;;;;12.57;5.25;;;4.00;99.90;;;;;;5012256;28;20060;-72
2022/05/09 03:48:55;;;;;;;11.05;4.70;;;4.10;99.90;;;;;;5009904;28;20491;-72
2022/05/09 03:51:21;;;;;;;13.15;4.55;;;4.10;99.90;;;;;;4995875;28;20132;-72
2022/05/09 03:53:46;;;;;;;6.68;4.82;;;3.90;99.90;;;;;;4993840;28;20049;-72
2022/05/09 03:56:12;;;;;;;8.13;4.68;;;3.80;99.90;;;;;;4985533;28;20045;-72
2022/05/09 03:58:39;;;;;;;12.80;5.47;;;3.70;99.90;;;;;;5013362;28;20446;-72
2022/05/09 04:01:05;;;;;;;9.60;5.28;;;3.60;99.90;;;;;;5012200;28;20037;-72
2022/05/09 04:03:31;;;;;;;11.63;5.30;;;3.60;99.90;;;;;;5011338;28;20044;-72
2022/05/09 04:05:57;;;;;;;13.00;4.90;;;3.60;99.90;;;;;;5023071;28;20092;-72
2022/05/09 04:08:23;;;;;;;11.18;5.15;;;3.80;99.90;;;;;;5009260;28;20048;-72
2022/05/09 04:10:51;;;;;;;9.18;4.57;;;3.90;99.90;;;;;;5011117;28;20587;-72
2022/05/09 04:13:17;;;;;;;8.48;4.22;;;4.00;99.90;;;;;;4994121;28;20136;-72
2022/05/09 04:18:34;;;;;;;9.77;4.78;;;4.10;99.90;;;;;;5012567;28;20041;-72
2022/05/09 04:21:00;;;;;;;10.27;5.00;;;4.20;99.90;;;;;;5012749;28;20063;-72
2022/05/09 04:23:25;;;;;;;25.13;6.32;;;4.30;99.90;;;;;;5006697;28;20479;-72
2022/05/09 04:25:51;;;;;;;13.73;4.68;;;4.40;99.90;;;;;;5009226;28;20579;-72
2022/05/09 04:28:19;;;;;;;10.55;4.35;;;4.50;99.90;;;;;;5013108;28;20036;-72
2022/05/09 04:30:45;;;;;;;10.07;4.63;;;4.60;99.90;;;;;;5011736;28;20056;-72
2022/05/09 04:33:11;;;;;;;11.57;5.90;;;4.60;99.90;;;;;;5013188;28;20505;-72
2022/05/09 04:35:39;;;;;;;13.27;6.15;;;4.60;99.90;;;;;;5013226;28;20245;-72
2022/05/09 04:38:06;;;;;;;9.73;5.22;;;4.70;99.90;;;;;;4994613;28;20112;-72
2022/05/09 04:40:35;;;;;;;12.85;5.35;;;4.80;99.90;;;;;;5011044;28;20513;-72
2022/05/09 04:43:01;;;;;;;18.30;6.47;;;4.90;99.90;;;;;;5013855;28;20043;-72
2022/05/09 04:45:28;;;;;;;11.18;6.30;;;4.90;99.90;;;;;;5003885;28;20045;-72
2022/05/09 04:47:54;;;;;;;20.00;6.70;;;5.00;99.90;;;;;;5003197;28;20438;-72
2022/05/09 04:50:22;;;;;;;18.50;6.85;;;5.00;99.90;;;;;;5012018;28;20040;-72
2022/05/09 04:52:48;;;;;;;17.70;7.43;;;5.10;99.90;;;;;;5012913;28;20064;-72
2022/05/09 04:55:15;;;;;;;15.38;6.50;;;5.20;99.90;;;;;;5012819;28;20045;-72
2022/05/09 04:57:41;;;;;;;12.65;6.53;;;5.30;99.90;;;;;;4995549;28;20033;-72
2022/05/09 05:00:10;;;;;;;12.30;6.65;;;5.40;99.90;;;;;;5003429;28;20390;-72
2022/05/09 05:02:36;;;;;;;15.73;6.20;;;5.40;99.90;;;;;;5012039;28;20029;-72
2022/05/09 05:05:03;;;;;;;17.90;8.13;;;5.50;99.90;;;;;;4988495;28;20657;-72
2022/05/09 05:07:28;;;;;;;14.05;7.32;;;5.50;99.90;;;;;;5013643;28;20084;-72
2022/05/09 05:09:54;;;;;;;18.02;8.27;;;5.50;99.90;;;;;;5029654;28;20517;-72
2022/05/09 05:12:19;;;;;;;13.40;7.65;;;5.60;99.90;;;;;;5013072;28;20048;-70
2022/05/09 05:14:45;;;;;;;16.63;8.02;;;5.70;99.90;;;;;;5009289;28;20133;-70
2022/05/09 05:17:11;;;;;;;13.23;7.18;;;5.90;99.90;;;;;;5013375;28;20139;-71
2022/05/09 05:19:40;;;;;;;18.25;7.30;;;5.90;99.90;;;;;;5013593;28;20054;-71
2022/05/09 05:22:06;;;;;;;12.30;7.25;;;6.00;99.90;;;;;;5013182;28;20037;-72
2022/05/09 05:24:34;;;;;;;16.80;8.05;;;6.20;99.90;;;;;;5012751;28;20369;-72
2022/05/09 05:27:00;;;;;;;19.02;8.38;;;6.30;99.90;;;;;;4994603;28;20475;-72
2022/05/09 05:29:26;;;;;;;16.33;8.50;;;6.40;99.90;;;;;;5010958;28;20045;-72
2022/05/09 05:31:52;;;;;;;18.70;7.68;;;6.60;99.90;;;;;;5001142;28;20104;-72
2022/05/09 05:34:18;;;;;;;18.42;7.50;;;6.80;99.90;;;;;;5012437;28;20524;-72
2022/05/09 05:36:44;;;;;;;18.73;7.93;;;6.90;99.90;;;;;;5010637;28;20050;-72
2022/05/09 05:39:13;;;;;;;14.40;7.18;;;7.10;99.90;;;;;;4991101;28;20125;-72
2022/05/09 05:41:39;;;;;;;19.35;7.68;;;7.30;99.90;;;;;;4992751;28;20119;-72
2022/05/09 05:44:08;;;;;;;16.23;7.85;;;7.50;99.90;;;;;;4996165;28;20145;-72
2022/05/09 05:46:34;;;;;;;19.08;8.10;;;7.70;99.90;;;;;;5028602;28;20045;-72
2022/05/09 05:49:00;;;;;;;17.83;7.50;;;8.00;99.90;;;;;;4992697;28;20046;-72
2022/05/09 05:51:26;;;;;;;15.32;6.80;;;9.40;99.90;;;;;;4992932;28;20055;-72
2022/05/09 05:53:53;;;;;;;14.43;7.18;;;10.90;99.90;;;;;;4991530;28;20480;-73
2022/05/09 05:56:19;;;;;;;14.70;6.90;;;12.30;99.90;;;;;;5008523;28;20095;-73
2022/05/09 05:58:45;;;;;;;13.48;6.43;;;13.60;99.90;;;;;;5009825;28;20048;-73
2022/05/09 06:01:11;;;;;;;14.52;6.90;;;14.30;99.90;;;;;;5009098;28;20041;-73
2022/05/09 06:03:36;;;;;;;14.05;6.03;;;15.50;99.90;;;;;;5010981;28;20085;-72
2022/05/09 06:06:02;;;;;;;17.77;6.03;;;16.60;99.80;;;;;;5008839;28;20037;-73
2022/05/09 06:08:27;;;;;;;18.15;5.75;;;16.60;99.30;;;;;;5010796;28;20053;-73
2022/05/09 06:10:53;;;;;;;14.73;5.57;;;17.30;99.00;;;;;;4991730;28;20046;-73
2022/05/09 06:13:19;;;;;;;13.82;5.35;;;17.80;95.30;;;;;;5003270;28;20041;-73
2022/05/09 06:15:45;;;;;;;14.77;5.32;;;17.90;95.40;;;;;;5009888;28;20129;-73
2022/05/09 06:18:12;;;;;;;11.88;5.13;;;18.80;95.70;;;;;;5008805;28;20134;-73
2022/05/09 06:20:41;;;;;;;14.57;4.97;;;19.50;91.70;;;;;;5024060;28;20048;-73
2022/05/09 06:23:08;;;;;;;11.73;5.00;;;;;;;;;;5008561;28;20038;-73
2022/05/09 06:25:34;;;;;;;11.57;5.10;;;19.80;91.30;;;;;;5008896;28;20434;-73
2022/05/09 06:28:01;;;;;;;15.20;4.78;;;20.30;89.20;;;;;;5010329;28;20056;-74
2022/05/09 06:30:27;;;;;;;12.48;5.05;;;20.30;84.50;;;;;;5011716;28;20052;-73
2022/05/09 06:32:54;;;;;;;14.52;5.10;;;20.50;82.00;;;;;;5012386;28;20079;-73
2022/05/09 06:35:23;;;;;;;8.73;5.00;;;;;;;;;;5009540;28;20047;-73
2022/05/09 06:37:50;;;;;;;14.32;5.10;;;20.40;83.00;;;;;;5010992;28;20057;-73
2022/05/09 06:40:17;;;;;;;9.93;4.25;;;21.10;82.00;;;;;;5012040;28;20041;-73
2022/05/09 06:42:43;;;;;;;10.10;4.63;;;21.50;79.40;;;;;;5012235;28;20037;-73
2022/05/09 06:45:10;;;;;;;9.15;4.43;;;21.60;78.90;;;;;;5028882;28;20475;-73
2022/05/09 06:47:44;;;;;;;10.57;4.68;;;22.80;76.00;;;;;;5012250;28;20129;-74
2022/05/09 06:50:10;;;;;;;10.20;4.30;;;22.80;72.10;;;;;;5010647;28;20092;-74
2022/05/09 06:52:36;;;;;;;11.32;4.20;;;23.30;71.40;;;;;;4989723;28;20044;-73
2022/05/09 06:55:03;;;;;;;8.95;4.20;;;23.40;67.80;;;;;;4993335;28;20045;-73
2022/05/09 06:57:29;;;;;;;8.90;4.32;;;23.60;68.90;;;;;;5009315;28;20044;-75
2022/05/09 06:59:55;;;;;;;12.25;4.50;;;24.10;67.10;;;;;;5005512;28;20037;-72
2022/05/09 07:02:20;;;;;;;12.02;4.47;;;24.60;63.60;;;;;;5011652;28;20033;-72
2022/05/09 07:04:46;;;;;;;11.38;4.70;;;24.70;64.90;;;;;;5007649;28;20048;-72
2022/05/09 07:07:11;;;;;;;7.53;4.20;;;25.40;61.90;;;;;;5004398;28;20061;-72
2022/05/09 07:09:37;;;;;;;8.88;4.10;;;25.40;61.60;;;;;;5011734;28;20052;-73
2022/05/09 07:12:03;;;;;;;10.70;4.38;;;25.70;60.40;;;;;;4990901;28;20045;-73
2022/05/09 07:14:29;;;;;;;8.25;4.00;;;26.00;60.00;;;;;;5011614;28;20096;-73
2022/05/09 07:16:54;;;;;;;10.30;4.72;;;26.20;56.80;;;;;;5008397;28;20041;-73
2022/05/09 07:19:20;;;;;;;10.77;4.75;;;26.30;57.00;;;;;;5005552;28;20029;-73
2022/05/09 07:21:45;;;;;;;8.93;4.63;;;26.50;57.50;;;;;;5011994;28;20061;-73
2022/05/09 07:24:11;;;;;;;7.18;4.38;;;26.00;51.50;;;;;;4985867;28;20487;-77
2022/05/09 07:26:37;;;;;;;11.25;4.30;;;25.40;55.10;;;;;;4985140;28;20112;-77
2022/05/09 07:29:05;;;;;;;9.57;4.40;;;25.80;54.50;;;;;;4991013;28;20057;-77
2022/05/09 07:31:31;;;;;;;8.98;4.10;;;25.20;52.20;;;;;;5011424;28;20521;-78
2022/05/09 07:33:56;;;;;;;10.77;4.00;;;25.90;54.80;;;;;;5012237;28;20053;-78
2022/05/09 07:36:22;;;;;;;9.32;4.97;;;26.50;55.20;;;;;;5011542;28;20049;-77
2022/05/09 07:38:47;;;;;;;11.52;4.50;;;26.60;51.70;;;;;;5012003;28;20111;-78
2022/05/09 07:41:13;;;;;;;10.95;4.53;;;27.20;48.40;;;;;;5009976;28;20102;-77
2022/05/09 07:43:39;;;;;;;10.45;4.53;;;27.30;51.60;;;;;;5009270;28;20702;-77
2022/05/09 07:46:05;;;;;;;8.15;3.72;;;27.80;49.70;;;;;;5025176;28;20410;-77
2022/05/09 07:48:30;;;;;;;8.57;4.10;;;27.80;50.50;;;;;;5001617;28;20044;-77
2022/05/09 07:50:58;;;;;;;8.05;4.05;;;27.70;49.80;;;;;;5012065;28;20077;-77
2022/05/09 07:53:31;;;;;;;10.75;4.47;;;27.10;48.00;;;;;;5008271;28;20503;-77
2022/05/09 07:55:56;;;;;;;9.95;4.85;;;26.20;48.30;;;;;;4992700;28;20041;-77
2022/05/09 07:58:23;;;;;;;8.60;4.53;;;25.60;49.20;;;;;;5009785;28;20040;-77
2022/05/09 08:00:49;;;;;;;9.57;4.07;;;23.60;51.20;;;;;;5010745;28;20045;-76
2022/05/09 08:03:20;;;;;;;9.10;4.35;;;22.20;54.70;;;;;;5011951;28;20083;-76
2022/05/09 08:05:46;;;;;;;;;;;21.80;56.10;;;;;;5007414;28;20041;-77
2022/05/09 08:08:12;;;;;;;11.10;4.55;;;21.40;57.10;;;;;;5007971;28;20033;-76
2022/05/09 08:10:39;;;;;;;11.75;4.45;;;20.60;58.00;;;;;;5008902;28;20060;-76
2022/05/09 08:13:06;;;;;;;12.63;4.40;;;20.20;59.40;;;;;;5014883;28;20033;-76
2022/05/09 08:15:32;;;;;;;9.27;4.90;;;20.00;60.20;;;;;;5008067;28;20109;-76
2022/05/09 08:17:59;;;;;;;10.07;4.60;;;19.60;61.60;;;;;;4989793;28;20045;-76
2022/05/09 08:20:25;;;;;;;9.15;4.18;;;19.20;63.00;;;;;;5007546;28;20046;-76
2022/05/09 08:23:03;;;;;;;9.32;4.13;;;18.90;63.60;;;;;;5011550;28;20029;-76
2022/05/09 08:25:30;;;;;;;8.95;4.13;;;18.70;64.10;;;;;;5012946;28;20060;-76
2022/05/09 08:27:55;;;;;;;9.82;3.90;;;18.60;63.30;;;;;;5011159;28;20052;-76
2022/05/09 08:30:21;;;;;;;8.43;4.38;;;18.50;64.90;;;;;;5009631;28;20034;-76
2022/05/09 08:32:47;;;;;;;9.27;4.22;;;18.20;65.50;;;;;;5014245;28;20089;-76
2022/05/09 08:35:13;;;;;;;10.20;3.72;;;17.30;67.00;;;;;;5025464;28;20083;-76
2022/05/09 08:37:39;;;;;;;8.13;4.25;;;17.70;67.70;;;;;;4996288;28;20077;-76
2022/05/09 08:40:06;;;;;;;10.02;4.15;;;18.00;68.50;;;;;;5007936;28;20534;-76
2022/05/09 08:42:54;;;;;;;9.57;3.80;;;18.10;68.60;;;;;;5012514;28;20033;-76
2022/05/09 08:45:33;;;;;;;12.25;4.25;;;18.20;68.50;;;;;;5014992;28;20470;-76
2022/05/09 08:48:13;;;;;;;10.88;3.97;;;18.30;67.70;;;;;;5012994;28;20049;-76
2022/05/09 08:50:51;;;;;;;12.77;4.95;;;18.50;67.30;;;;;;5009278;28;20578;-77
2022/05/09 08:53:23;;;;;;;11.38;5.63;;;18.40;66.70;;;;;;4995278;28;20069;-76
2022/05/09 08:55:51;;;;;;;7.15;3.80;;;18.30;66.70;;;;;;4989497;28;20038;-76
2022/05/09 08:58:39;;;;;;;9.45;4.22;;;18.00;67.10;;;;;;5020877;28;20052;-75
2022/05/09 09:01:14;;;;;;;10.77;3.70;;;18.20;66.40;;;;;;4983658;28;20387;-75
2022/05/09 09:03:44;;;;;;;9.38;3.15;;;18.30;63.60;;;;;;5006334;28;20040;-75
2022/05/09 09:06:40;;;;;;;12.18;3.30;;;18.50;66.60;;;;;;5005594;28;20124;-75
2022/05/09 09:09:11;;;;;;;8.75;3.83;;;18.60;62.60;;;;;;4981705;28;20092;-76
2022/05/09 09:11:56;;;;;;;8.25;3.78;;;18.60;65.00;;;;;;5007465;28;20454;-76
2022/05/09 09:14:30;;;;;;;9.93;3.63;;;18.80;65.00;;;;;;5005149;28;20056;-76
2022/05/09 09:17:11;;;;;;;9.35;3.08;;;18.80;62.90;;;;;;4989885;28;20030;-75
2022/05/09 09:19:56;;;;;;;9.68;3.45;;;18.80;59.70;;;;;;5009150;28;20116;-75
2022/05/09 09:22:31;;;;;;;6.70;3.47;;;18.80;64.10;;;;;;5005739;28;20477;-75
2022/05/09 09:25:28;;;;;;;8.40;3.25;;;19.00;64.70;;;;;;5000708;28;20390;-75
2022/05/09 09:27:59;;;;;;;8.90;3.45;;;18.90;61.80;;;;;;5008145;28;20183;-75
2022/05/09 09:30:26;;;;;;;;;;;18.70;62.20;;;;;;5005014;28;20124;-75
2022/05/09 09:32:59;;;;;;;11.02;3.40;;;19.10;65.60;;;;;;5011619;28;19917;-75
2022/05/09 09:35:46;;;;;;;7.45;3.15;;;19.20;64.20;;;;;;5011854;28;20381;-75
2022/05/09 09:38:12;;;;;;;9.82;3.25;;;19.30;63.00;;;;;;4990572;28;20050;-75
2022/05/09 09:40:38;;;;;;;8.55;2.17;;;19.30;60.80;;;;;;4986538;28;20054;-76
2022/05/09 09:43:03;;;;;;;7.45;2.55;;;19.30;57.00;;;;;;4986084;28;20046;-76
2022/05/09 09:45:35;;;;;;;5.57;2.30;;;19.50;60.50;;;;;;4970663;28;20042;-74
2022/05/09 09:48:08;;;;;;;6.88;2.60;;;19.60;55.90;;;;;;4990081;28;20057;-75
2022/05/09 09:50:35;;;;;;;11.45;2.70;;;19.70;60.10;;;;;;4986165;28;20057;-75
2022/05/09 09:53:02;;;;;;;8.02;3.30;;;19.80;60.60;;;;;;4984024;28;20058;-75
2022/05/09 09:55:39;;;;;;;7.57;2.47;;;19.70;54.10;;;;;;4990014;28;20762;-75
2022/05/09 09:58:22;;;;;;;7.28;2.60;;;19.90;54.10;;;;;;4987670;28;20096;-75
2022/05/09 10:01:04;;;;;;;6.47;2.65;;;19.90;56.90;;;;;;4988218;28;20066;-75
2022/05/09 10:03:33;;;;;;;6.70;2.90;;;20.00;56.60;;;;;;4987548;28;20057;-75
2022/05/09 10:05:59;;;;;;;11.40;4.03;;;19.80;53.00;;;;;;4987740;28;20400;-75
2022/05/09 10:08:37;;;;;;;7.75;2.63;;;19.60;53.60;;;;;;4989467;28;20700;-75
2022/05/09 10:11:09;;;;;;;9.20;3.22;;;19.70;55.40;;;;;;4988813;28;20442;-75
2022/05/09 10:13:49;;;;;;;8.73;3.00;;;19.70;53.60;;;;;;4989426;28;20049;-75
2022/05/09 10:16:33;;;;;;;7.95;3.25;;;19.20;52.90;;;;;;4989563;28;20392;-76
2022/05/09 10:19:08;;;;;;;10.88;3.22;;;19.20;55.00;;;;;;4988127;28;20042;-75
2022/05/09 10:24:48;;;;;;;16.15;3.00;;;19.30;56.20;;;;;;4988445;28;20042;-75
2022/05/09 10:27:23;;;;;;;9.32;3.83;;;19.50;55.20;;;;;;4988952;28;20074;-76
2022/05/09 10:30:01;;;;;;;8.43;2.58;;;19.40;54.10;;;;;;5003863;28;20153;-76
2022/05/09 10:32:56;;;;;;;7.82;2.80;;;19.60;56.60;;;;;;4994774;28;20134;-75
2022/05/09 10:35:26;;;;;;;6.32;2.38;;;19.80;57.70;;;;;;4987975;28;20440;-75
2022/05/09 10:38:03;;;;;;;7.82;3.15;;;20.10;58.80;;;;;;4984995;28;20082;-75
2022/05/09 10:40:48;;;;;;;9.75;2.80;;;20.10;54.40;;;;;;4982432;28;20038;-75
2022/05/09 10:43:46;;;;;;;6.13;2.42;;;20.40;57.40;;;;;;4958473;28;21068;-75
2022/05/09 10:46:13;;;;;;;8.10;2.72;;;20.50;57.80;;;;;;4986551;28;20046;-75
2022/05/09 10:48:48;;;;;;;6.93;2.30;;;20.70;58.30;;;;;;4988777;28;20078;-75
2022/05/09 10:51:28;;;;;;;6.60;2.00;;;20.90;57.10;;;;;;4988895;28;20129;-75
2022/05/09 10:54:09;;;;;;;10.35;2.47;;;21.00;54.10;;;;;;4976267;28;20592;-75
2022/05/09 10:56:53;;;;;;;6.13;2.28;;;21.10;55.70;;;;;;4988717;28;20050;-75
2022/05/09 10:59:24;;;;;;;8.27;2.15;;;21.30;53.60;;;;;;4970603;28;20054;-75
2022/05/09 11:01:56;;;;;;;6.53;2.30;;;21.40;56.20;;;;;;4972448;28;20047;-75
2022/05/09 11:04:23;;;;;;;6.60;2.33;;;21.40;54.50;;;;;;4972204;28;20054;-76
2022/05/09 11:07:06;;;;;;;6.10;2.35;;;21.20;52.30;;;;;;4987111;28;20068;-75
2022/05/09 11:10:10;;;;;;;6.88;2.20;;;21.30;55.00;;;;;;4987986;28;20046;-75
2022/05/09 11:12:57;;;;;;;5.95;2.00;;;21.50;56.70;;;;;;4988540;28;20122;-75
2022/05/09 11:15:58;;;;;;;8.10;2.85;;;21.70;55.40;;;;;;4988901;28;20042;-75
2022/05/09 11:19:20;;;;;;;8.57;2.03;;;21.50;51.60;;;;;;4944754;28;20089;-75
2022/05/09 11:22:12;;;;;;;7.40;2.30;;;21.50;54.70;;;;;;4990794;28;20042;-75
2022/05/09 11:25:29;;;;;;;7.22;2.20;;;21.70;56.60;;;;;;4992796;28;20105;-74
2022/05/09 11:28:19;;;;;;;5.80;2.30;;;21.80;53.60;;;;;;4970193;28;20112;-75
2022/05/09 11:30:52;;;;;;;7.57;2.40;;;21.80;53.70;;;;;;4973562;28;20052;-75
2022/05/09 11:33:32;;;;;;;7.57;2.50;;;21.80;53.90;;;;;;5004856;28;20077;-75
2022/05/09 11:36:27;;;;;;;4.90;2.30;;;22.00;56.10;;;;;;4991094;28;20047;-75
2022/05/09 11:39:17;;;;;;;12.63;2.55;;;22.10;55.40;;;;;;5012357;28;20145;-75
2022/05/09 11:43:27;;;;;;;6.53;2.47;;;22.10;57.20;;;;;;4992701;28;20475;-75
2022/05/09 11:44:59;;;;;;;29.95;3.45;;;22.10;56.60;;;;;;5002703;28;20045;-75
2022/05/09 11:47:34;;;;;;;6.97;2.00;;;21.90;55.70;;;;;;5011974;28;20052;-75
2022/05/09 11:50:16;;;;;;;4.53;2.00;;;21.90;54.50;;;;;;5013899;28;20100;-75
2022/05/09 11:52:43;;;;;;;5.43;1.92;;;21.80;52.10;;;;;;5005378;28;20130;-75
2022/05/09 11:55:22;;;;;;;4.68;2.10;;;21.90;56.10;;;;;;4990259;28;20054;-75
2022/05/09 11:57:53;;;;;;;3.45;2.15;;;21.90;54.00;;;;;;5013593;28;20058;-75
2022/05/09 12:00:25;;;;;;;7.45;2.33;;;22.10;52.60;;;;;;5012031;28;20691;-75
2022/05/09 12:02:54;;;;;;;;;;;22.30;55.40;;;;;;5003849;28;20038;-75
2022/05/09 12:05:35;;;;;;;5.55;2.20;;;22.20;50.10;;;;;;5016414;28;19921;-75
2022/05/09 12:08:41;;;;;;;5.40;2.00;;;22.20;51.20;;;;;;5004742;28;20065;-75
2022/05/09 12:11:47;;;;;;;9.20;2.40;;;22.30;54.20;;;;;;5005830;28;20073;-76
2022/05/09 12:14:46;;;;;;;5.15;1.88;;;22.40;51.10;;;;;;5010820;28;20071;-76
2022/05/09 12:17:22;;;;;;;3.78;2.13;;;22.50;56.60;;;;;;5000689;28;20408;-75
2022/05/09 12:19:48;;;;;;;4.20;1.90;;;22.40;52.50;;;;;;5007419;28;20033;-75
2022/05/09 12:22:18;;;;;;;8.27;1.88;;;22.50;56.00;;;;;;5022136;28;20088;-75
2022/05/09 12:24:44;;;;;;;4.95;1.75;;;22.70;55.30;;;;;;5016252;28;20056;-76
2022/05/09 12:27:39;;;;;;;6.65;1.90;;;22.80;54.30;;;;;;5009906;28;20120;-76
2022/05/09 12:30:12;;;;;;;8.45;2.20;;;22.90;54.60;;;;;;5005085;28;20410;-76
2022/05/09 12:32:38;;;;;;;6.15;1.85;;;22.80;50.00;;;;;;5006767;28;20136;-76
2022/05/09 12:35:07;;;;;;;5.57;2.58;;;22.90;54.60;;;;;;5006665;28;20124;-75
2022/05/09 12:37:44;;;;;;;5.60;2.20;;;23.10;55.60;;;;;;5039554;23;20072;-72
2022/05/09 12:40:25;;;;;;;7.90;2.30;;;23.00;51.10;;;;;;5059392;28;20044;-72
2022/05/09 12:43:01;;;;;;;8.15;2.75;;;23.10;52.30;;;;;;5070002;28;20101;-72
2022/05/09 12:45:28;;;;;;;6.80;2.05;;;23.00;51.40;;;;;;5096443;28;20047;-72
2022/05/09 12:47:54;;;;;;;7.00;2.47;;;23.00;54.20;;;;;;5068857;28;20051;-73
2022/05/09 12:50:28;;;;;;;11.20;2.60;;;23.10;55.10;;;;;;5068040;28;20426;-73
2022/05/09 12:53:00;;;;;;;6.72;2.20;;;23.20;54.90;;;;;;5069127;28;20056;-72
2022/05/09 12:58:36;;;;;;;10.55;2.55;;;23.30;54.90;;;;;;5066052;28;20379;-71
2022/05/09 13:01:26;;;;;;;4.72;2.28;;;23.40;55.30;;;;;;5054859;28;20037;-72
2022/05/09 13:03:58;;;;;;;7.43;2.25;;;23.50;55.70;;;;;;5061878;28;20190;-71
2022/05/09 13:06:27;;;;;;;6.20;2.47;;;23.50;53.00;;;;;;5062228;28;20041;-71
2022/05/09 13:08:54;;;;;;;4.88;2.33;;;23.50;51.90;;;;;;5063820;28;20048;-71
2022/05/09 13:11:23;;;;;;;5.47;2.30;;;23.40;54.90;;;;;;5066567;28;20082;-71
2022/05/09 13:14:07;;;;;;;5.30;2.55;;;23.40;54.60;;;;;;5061835;28;20048;-71
2022/05/09 13:16:39;;;;;;;7.53;2.20;;;23.50;57.60;;;;;;5062997;28;20452;-71
2022/05/09 13:19:06;;;;;;;;;;;23.50;57.10;;;;;;5069173;28;20059;-71